createdAt,value
2018-03-29T00:01:10.328Z,60.70
2018-03-29T00:03:37.840Z,60.80
2018-03-29T00:06:06.195Z,60.90
2018-03-29T00:08:33.767Z,60.90
2018-03-29T00:11:01.259Z,60.80
2018-03-29T00:13:29.616Z,60.90
2018-03-29T00:15:57.190Z,60.90
2018-03-29T00:18:24.752Z,60.90
2018-03-29T00:20:52.245Z,60.90
2018-03-29T00:23:20.506Z,61.10
2018-03-29T00:25:48.787Z,61.20
2018-03-29T00:28:17.078Z,61.30
2018-03-29T00:30:45.382Z,61.40
2018-03-29T00:33:12.904Z,61.30
2018-03-29T00:35:40.466Z,61.30
2018-03-29T00:38:07.971Z,61.40
2018-03-29T00:40:36.251Z,61.50
2018-03-29T00:43:04.499Z,61.50
2018-03-29T00:45:32.065Z,61.50
2018-03-29T00:47:59.575Z,61.50
2018-03-29T00:50:27.092Z,61.50
2018-03-29T00:52:54.656Z,61.60
2018-03-29T00:55:22.231Z,61.60
2018-03-29T00:57:49.739Z,61.60
2018-03-29T01:00:17.240Z,61.60
2018-03-29T01:02:44.731Z,61.60
2018-03-29T01:05:12.280Z,61.60
2018-03-29T01:07:39.770Z,61.70
2018-03-29T01:10:08.129Z,61.70
2018-03-29T01:12:35.657Z,61.60
2018-03-29T01:15:03.271Z,61.80
2018-03-29T01:17:30.844Z,61.90
2018-03-29T01:19:58.348Z,61.80
2018-03-29T01:22:25.851Z,61.90
2018-03-29T01:24:53.449Z,61.80
2018-03-29T01:27:21.706Z,61.90
2018-03-29T01:29:49.216Z,61.90
2018-03-29T01:32:28.611Z,61.90
2018-03-29T01:34:56.125Z,61.90
2018-03-29T01:37:23.628Z,61.90
2018-03-29T01:39:51.170Z,62.60
2018-03-29T01:42:18.668Z,61.90
2018-03-29T01:44:46.151Z,61.90
2018-03-29T01:47:14.429Z,62.00
2018-03-29T01:49:42.691Z,62.00
2018-03-29T01:52:10.178Z,62.00
2018-03-29T01:54:38.535Z,62.00
2018-03-29T01:57:06.113Z,62.00
2018-03-29T01:59:33.677Z,62.00
2018-03-29T02:02:01.242Z,62.00
2018-03-29T02:04:29.507Z,62.10
2018-03-29T02:06:57.003Z,62.20
2018-03-29T02:09:25.257Z,61.70
2018-03-29T02:11:52.782Z,61.70
2018-03-29T02:14:20.288Z,61.40
2018-03-29T02:16:47.874Z,61.10
2018-03-29T02:19:15.357Z,61.10
2018-03-29T02:21:43.709Z,61.00
2018-03-29T02:24:11.280Z,61.00
2018-03-29T02:26:38.793Z,61.00
2018-03-29T02:29:06.289Z,61.00
2018-03-29T02:31:33.789Z,60.90
2018-03-29T02:34:02.153Z,60.90
2018-03-29T02:36:29.663Z,60.90
2018-03-29T02:38:57.162Z,61.00
2018-03-29T02:41:24.648Z,61.00
2018-03-29T02:43:52.206Z,61.10
2018-03-29T02:46:19.772Z,61.10
2018-03-29T02:48:47.352Z,61.20
2018-03-29T02:51:14.853Z,61.20
2018-03-29T02:53:42.363Z,61.30
2018-03-29T02:56:09.896Z,61.40
2018-03-29T02:58:37.383Z,61.40
2018-03-29T03:01:04.964Z,61.50
2018-03-29T03:03:32.473Z,61.50
2018-03-29T03:05:59.965Z,61.60
2018-03-29T03:08:27.554Z,61.60
2018-03-29T03:10:55.048Z,61.60
2018-03-29T03:13:23.319Z,61.70
2018-03-29T03:15:51.677Z,61.80
2018-03-29T03:18:19.167Z,61.70
2018-03-29T03:20:47.532Z,61.80
2018-03-29T03:23:15.106Z,61.80
2018-03-29T03:25:42.681Z,61.80
2018-03-29T03:28:10.171Z,61.80
2018-03-29T03:30:37.659Z,61.90
2018-03-29T03:33:05.162Z,61.90
2018-03-29T03:35:32.655Z,62.00
2018-03-29T03:38:00.932Z,61.90
2018-03-29T03:40:29.286Z,61.90
2018-03-29T03:42:56.845Z,61.90
2018-03-29T03:45:24.350Z,61.90
2018-03-29T03:47:52.702Z,61.90
2018-03-29T03:50:20.207Z,61.90
2018-03-29T03:52:47.716Z,62.70
2018-03-29T03:55:15.207Z,61.90
2018-03-29T03:57:42.757Z,62.00
2018-03-29T04:00:10.271Z,62.00
2018-03-29T04:02:37.770Z,62.00
2018-03-29T04:05:05.368Z,62.00
2018-03-29T04:07:32.870Z,62.10
2018-03-29T04:10:00.354Z,62.00
2018-03-29T04:12:27.933Z,61.80
2018-03-29T04:14:55.434Z,61.80
2018-03-29T04:17:23.699Z,61.60
2018-03-29T04:19:51.271Z,61.60
2018-03-29T04:22:18.832Z,61.50
2018-03-29T04:24:46.390Z,61.50
2018-03-29T04:27:13.963Z,61.40
2018-03-29T04:29:41.510Z,61.40
2018-03-29T04:32:08.991Z,61.40
2018-03-29T04:34:36.549Z,61.40
2018-03-29T04:37:04.062Z,61.20
2018-03-29T04:39:31.570Z,61.20
2018-03-29T04:41:59.153Z,61.30
2018-03-29T04:44:26.660Z,61.30
2018-03-29T04:46:54.174Z,61.20
2018-03-29T04:49:21.743Z,61.10
2018-03-29T04:51:49.266Z,61.10
2018-03-29T04:54:16.752Z,61.00
2018-03-29T04:56:44.255Z,61.10
2018-03-29T04:59:12.510Z,61.50
2018-03-29T05:01:40.078Z,61.50
2018-03-29T05:04:07.654Z,61.20
2018-03-29T05:06:35.152Z,61.00
2018-03-29T05:09:02.650Z,60.30
2018-03-29T05:11:30.251Z,60.10
2018-03-29T05:13:57.752Z,60.00
2018-03-29T05:16:25.272Z,60.00
2018-03-29T05:18:52.767Z,59.90
2018-03-29T05:21:20.284Z,59.60
2018-03-29T05:23:47.864Z,59.70
2018-03-29T05:26:15.363Z,59.50
2018-03-29T05:28:42.960Z,59.40
2018-03-29T05:31:11.174Z,58.80
2018-03-29T05:33:38.692Z,58.80
2018-03-29T05:36:06.185Z,58.60
2018-03-29T05:38:33.766Z,58.40
2018-03-29T05:41:01.344Z,58.10
2018-03-29T05:43:28.858Z,57.80
2018-03-29T05:45:56.374Z,57.70
2018-03-29T05:48:23.880Z,57.40
2018-03-29T05:50:51.391Z,57.10
2018-03-29T05:53:18.949Z,56.90
2018-03-29T05:55:46.455Z,56.70
2018-03-29T05:58:14.755Z,56.30
2018-03-29T06:00:42.284Z,56.30
2018-03-29T06:03:09.839Z,56.40
2018-03-29T06:05:37.332Z,56.10
2018-03-29T06:08:05.696Z,55.70
2018-03-29T06:10:33.260Z,55.60
2018-03-29T06:13:00.759Z,55.50
2018-03-29T06:15:33.287Z,56.00
2018-03-29T06:18:00.812Z,55.20
2018-03-29T06:20:28.305Z,55.20
2018-03-29T06:22:55.848Z,55.70
2018-03-29T06:25:23.448Z,55.00
2018-03-29T06:27:50.986Z,54.60
2018-03-29T06:30:18.483Z,53.90
2018-03-29T06:32:46.042Z,53.60
2018-03-29T06:35:13.535Z,53.50
2018-03-29T06:37:41.787Z,53.70
2018-03-29T06:40:09.294Z,53.70
2018-03-29T06:42:37.651Z,53.90
2018-03-29T06:45:05.214Z,53.90
2018-03-29T06:47:32.713Z,53.90
2018-03-29T06:50:00.204Z,53.90
2018-03-29T06:52:27.718Z,53.90
2018-03-29T06:54:55.980Z,54.00
2018-03-29T06:57:23.467Z,53.90
2018-03-29T06:59:51.733Z,53.80
2018-03-29T07:02:20.012Z,53.70
2018-03-29T07:04:47.585Z,53.70
2018-03-29T07:07:15.069Z,53.70
2018-03-29T07:09:43.320Z,53.60
2018-03-29T07:12:10.806Z,53.50
2018-03-29T07:14:39.177Z,54.10
2018-03-29T07:17:06.727Z,53.50
2018-03-29T07:19:34.302Z,53.40
2018-03-29T07:22:01.817Z,53.40
2018-03-29T07:24:29.314Z,53.20
2018-03-29T07:26:56.882Z,53.10
2018-03-29T07:29:24.476Z,53.00
2018-03-29T07:31:51.976Z,52.90
2018-03-29T07:34:19.467Z,52.90
2018-03-29T07:36:47.065Z,52.80
2018-03-29T07:39:14.569Z,52.70
2018-03-29T07:41:42.158Z,52.60
2018-03-29T07:44:09.654Z,52.50
2018-03-29T07:46:37.145Z,52.50
2018-03-29T07:49:05.410Z,52.30
2018-03-29T07:51:32.912Z,52.30
2018-03-29T07:54:00.524Z,52.30
2018-03-29T07:56:28.086Z,52.10
2018-03-29T07:58:55.581Z,52.10
2018-03-29T08:01:23.835Z,51.90
2018-03-29T08:03:51.353Z,51.90
2018-03-29T08:06:18.863Z,51.80
2018-03-29T08:08:46.347Z,51.70
2018-03-29T08:11:14.712Z,51.60
2018-03-29T08:13:42.211Z,51.60
2018-03-29T08:16:09.702Z,51.50
2018-03-29T08:18:37.315Z,51.30
2018-03-29T08:21:04.802Z,51.20
2018-03-29T08:23:33.051Z,51.10
2018-03-29T08:26:00.550Z,51.10
2018-03-29T08:28:28.897Z,51.10
2018-03-29T08:30:56.419Z,51.10
2018-03-29T08:33:23.924Z,51.00
2018-03-29T08:35:51.503Z,51.00
2018-03-29T08:38:19.073Z,50.90
2018-03-29T08:40:46.576Z,50.80
2018-03-29T08:43:14.084Z,50.90
2018-03-29T08:45:41.573Z,51.10
2018-03-29T08:48:09.885Z,51.10
2018-03-29T08:50:38.114Z,51.20
2018-03-29T08:53:05.672Z,51.20
2018-03-29T08:55:33.247Z,51.40
2018-03-29T08:58:00.755Z,51.40
2018-03-29T09:00:28.248Z,51.60
2018-03-29T09:02:55.751Z,52.30
2018-03-29T09:05:23.313Z,52.00
2018-03-29T09:07:50.882Z,51.70
2018-03-29T09:10:18.450Z,51.40
2018-03-29T09:12:45.960Z,51.20
2018-03-29T09:15:13.447Z,50.80
2018-03-29T09:17:41.057Z,50.40
2018-03-29T09:20:09.332Z,50.50
2018-03-29T09:22:37.596Z,50.20
2018-03-29T09:25:05.123Z,50.10
2018-03-29T09:27:32.620Z,49.90
2018-03-29T09:30:00.210Z,49.10
2018-03-29T09:32:27.761Z,49.60
2018-03-29T09:34:56.018Z,49.30
2018-03-29T09:37:23.614Z,49.30
2018-03-29T09:39:51.194Z,49.40
2018-03-29T09:42:19.552Z,48.90
2018-03-29T09:44:47.153Z,48.90
2018-03-29T09:47:15.414Z,48.40
2018-03-29T09:49:42.967Z,48.40
2018-03-29T09:52:10.539Z,48.40
2018-03-29T09:54:38.045Z,48.30
2018-03-29T09:57:05.573Z,47.90
2018-03-29T09:59:33.138Z,48.10
2018-03-29T10:02:06.344Z,48.20
2018-03-29T10:04:34.604Z,48.10
2018-03-29T10:07:03.603Z,48.00
2018-03-29T10:09:31.094Z,48.00
2018-03-29T10:11:59.448Z,47.70
2018-03-29T10:14:27.722Z,47.40
2018-03-29T10:16:55.301Z,47.30
2018-03-29T10:19:22.868Z,47.50
2018-03-29T10:21:50.389Z,47.60
2018-03-29T10:24:17.883Z,47.30
2018-03-29T10:26:45.400Z,47.40
2018-03-29T10:29:12.900Z,48.00
2018-03-29T10:31:40.397Z,47.10
2018-03-29T10:34:09.052Z,47.10
2018-03-29T10:36:36.562Z,47.10
2018-03-29T10:39:04.839Z,47.10
2018-03-29T10:41:32.326Z,46.60
2018-03-29T10:43:59.822Z,46.40
2018-03-29T10:46:27.406Z,46.80
2018-03-29T10:48:54.892Z,46.70
2018-03-29T10:51:22.402Z,47.00
2018-03-29T10:53:49.920Z,47.40
2018-03-29T10:56:17.423Z,47.80
2018-03-29T10:58:44.908Z,47.20
2018-03-29T11:01:12.415Z,46.60
2018-03-29T11:03:40.792Z,47.00
2018-03-29T11:06:08.404Z,47.00
2018-03-29T11:08:35.915Z,46.90
2018-03-29T11:11:03.426Z,46.30
2018-03-29T11:13:30.923Z,45.90
2018-03-29T11:15:58.520Z,46.20
2018-03-29T11:18:26.871Z,46.50
2018-03-29T11:23:28.269Z,47.90
2018-03-29T11:25:55.781Z,49.70
2018-03-29T11:28:23.406Z,50.10
2018-03-29T11:30:50.971Z,50.10
2018-03-29T11:33:19.976Z,50.80
2018-03-29T11:35:47.532Z,50.80
2018-03-29T11:38:15.105Z,50.70
2018-03-29T11:40:42.684Z,50.50
2018-03-29T11:43:10.162Z,50.10
2018-03-29T11:45:37.687Z,50.30
2018-03-29T11:48:05.217Z,50.60
2018-03-29T11:50:32.700Z,50.00
2018-03-29T11:53:00.212Z,50.00
2018-03-29T11:55:28.479Z,49.80
2018-03-29T11:57:56.745Z,50.50
2018-03-29T12:00:24.321Z,50.30
2018-03-29T12:02:51.880Z,50.00
2018-03-29T12:05:19.392Z,50.10
2018-03-29T12:07:46.888Z,50.10
2018-03-29T12:10:14.374Z,49.80
2018-03-29T12:12:41.892Z,50.10
2018-03-29T12:15:09.391Z,50.40
2018-03-29T12:17:36.976Z,50.80
2018-03-29T12:20:04.482Z,50.80
2018-03-29T12:22:31.973Z,50.40
2018-03-29T12:24:59.462Z,50.50
2018-03-29T12:27:27.036Z,50.80
2018-03-29T12:29:54.603Z,51.40
2018-03-29T12:32:22.165Z,50.00
2018-03-29T12:34:49.672Z,49.80
2018-03-29T12:37:17.172Z,49.70
2018-03-29T12:39:44.763Z,49.60
2018-03-29T12:42:12.311Z,49.70
2018-03-29T12:44:39.899Z,48.80
2018-03-29T12:47:08.153Z,49.00
2018-03-29T12:49:35.748Z,48.40
2018-03-29T12:52:03.237Z,48.60
2018-03-29T12:54:54.297Z,48.40
2018-03-29T12:57:33.638Z,48.40
2018-03-29T13:00:01.201Z,48.40
2018-03-29T13:02:28.701Z,48.20
2018-03-29T13:04:57.055Z,48.30
2018-03-29T13:07:24.573Z,48.40
2018-03-29T13:09:52.083Z,49.30
2018-03-29T13:12:19.584Z,49.00
2018-03-29T13:14:47.107Z,48.90
2018-03-29T13:17:14.607Z,49.00
2018-03-29T13:19:42.112Z,49.20
2018-03-29T13:22:09.697Z,49.10
2018-03-29T13:24:37.276Z,49.00
2018-03-29T13:27:04.788Z,49.00
2018-03-29T13:29:32.290Z,49.70
2018-03-29T13:31:59.794Z,49.80
2018-03-29T13:34:28.140Z,49.80
2018-03-29T13:36:55.703Z,49.70
2018-03-29T13:39:23.197Z,50.30
2018-03-29T13:41:51.481Z,49.80
2018-03-29T13:44:19.758Z,49.50
2018-03-29T13:46:48.027Z,49.60
2018-03-29T13:49:16.309Z,49.70
2018-03-29T13:51:43.822Z,49.70
2018-03-29T13:54:11.313Z,50.00
2018-03-29T13:56:38.805Z,49.80
2018-03-29T13:59:06.350Z,50.90
2018-03-29T14:01:33.880Z,50.30
2018-03-29T14:04:01.359Z,49.90
2018-03-29T14:06:28.952Z,49.90
2018-03-29T14:08:56.442Z,49.70
2018-03-29T14:11:24.699Z,50.10
2018-03-29T14:13:52.265Z,50.10
2018-03-29T14:16:19.770Z,49.80
2018-03-29T14:18:47.301Z,49.70
2018-03-29T14:21:16.394Z,50.00
2018-03-29T14:23:44.668Z,50.30
2018-03-29T14:26:12.192Z,50.40
2018-03-29T14:28:39.709Z,50.40
2018-03-29T14:31:07.280Z,50.40
2018-03-29T14:33:34.791Z,49.90
2018-03-29T14:36:02.294Z,50.30
2018-03-29T14:38:29.886Z,50.90
2018-03-29T14:40:57.379Z,51.60
2018-03-29T14:43:24.885Z,51.80
2018-03-29T14:45:52.461Z,52.30
2018-03-29T14:48:20.142Z,52.70
2018-03-29T14:50:47.703Z,52.80
2018-03-29T14:56:09.548Z,52.90
2018-03-29T14:58:37.057Z,52.90
2018-03-29T15:01:04.598Z,52.60
2018-03-29T15:03:32.083Z,52.50
2018-03-29T15:05:59.596Z,52.50
2018-03-29T15:08:27.116Z,52.80
2018-03-29T15:10:54.617Z,53.00
2018-03-29T15:13:22.135Z,53.00
2018-03-29T15:15:49.657Z,52.90
2018-03-29T15:18:18.656Z,53.10
2018-03-29T15:20:46.172Z,53.10
2018-03-29T15:23:13.656Z,53.20
2018-03-29T15:25:41.244Z,54.00
2018-03-29T15:28:08.803Z,53.60
2018-03-29T15:30:36.304Z,53.60
2018-03-29T15:33:04.668Z,53.50
2018-03-29T15:35:32.173Z,53.60
2018-03-29T15:37:59.680Z,53.60
2018-03-29T15:40:27.967Z,49.60
2018-03-29T15:42:55.499Z,49.50
2018-03-29T15:45:23.011Z,47.70
2018-03-29T15:47:51.385Z,50.30
2018-03-29T15:50:18.953Z,50.30
2018-03-29T15:52:46.519Z,51.10
2018-03-29T15:55:14.794Z,51.70
2018-03-29T15:57:42.366Z,51.70
2018-03-29T16:00:09.926Z,51.60
2018-03-29T16:02:38.197Z,51.40
2018-03-29T16:05:05.693Z,51.50
2018-03-29T16:07:33.957Z,51.90
2018-03-29T16:10:01.537Z,51.90
2018-03-29T16:12:29.913Z,51.70
2018-03-29T16:14:57.531Z,51.70
2018-03-29T16:17:25.042Z,52.30
2018-03-29T16:19:52.548Z,51.60
2018-03-29T16:22:20.158Z,51.40
2018-03-29T16:24:47.752Z,51.70
2018-03-29T16:27:16.031Z,51.70
2018-03-29T16:29:44.406Z,51.90
2018-03-29T16:32:12.691Z,52.00
2018-03-29T16:34:41.074Z,52.00
2018-03-29T16:37:08.633Z,52.00
2018-03-29T16:39:37.648Z,52.00
2018-03-29T16:42:05.911Z,51.80
2018-03-29T16:44:33.489Z,51.80
2018-03-29T16:47:01.070Z,52.00
2018-03-29T16:49:29.347Z,51.80
2018-03-29T16:51:57.601Z,52.00
2018-03-29T16:54:25.091Z,52.00
2018-03-29T16:56:53.374Z,52.10
2018-03-29T16:59:21.793Z,52.10
2018-03-29T17:01:50.126Z,52.00
2018-03-29T17:04:17.716Z,52.00
2018-03-29T17:06:45.977Z,51.70
2018-03-29T17:09:13.476Z,51.70
2018-03-29T17:11:41.012Z,51.70
2018-03-29T17:14:08.669Z,51.50
2018-03-29T17:16:36.226Z,51.30
2018-03-29T17:19:03.798Z,51.30
2018-03-29T17:21:31.319Z,51.40
2018-03-29T17:23:58.938Z,51.60
2018-03-29T17:26:26.442Z,51.90
2018-03-29T17:28:53.935Z,51.90
2018-03-29T17:31:21.436Z,51.90
2018-03-29T17:33:49.822Z,52.30
2018-03-29T17:36:17.394Z,51.80
2018-03-29T17:38:45.653Z,51.70
2018-03-29T17:41:13.158Z,51.70
2018-03-29T17:43:41.416Z,52.40
2018-03-29T17:46:09.673Z,52.70
2018-03-29T17:48:37.238Z,52.60
2018-03-29T17:51:04.733Z,52.50
2018-03-29T17:53:32.987Z,53.20
2018-03-29T17:56:00.498Z,53.20
2018-03-29T17:58:28.056Z,53.30
2018-03-29T18:00:56.351Z,46.40
2018-03-29T18:03:23.858Z,46.40
2018-03-29T18:05:51.351Z,43.70
2018-03-29T18:08:18.944Z,43.70
2018-03-29T18:10:46.484Z,48.90
2018-03-29T18:13:14.779Z,50.80
2018-03-29T18:15:43.053Z,51.00
2018-03-29T18:18:11.351Z,51.20
2018-03-29T18:20:38.838Z,51.20
2018-03-29T18:23:06.354Z,51.20
2018-03-29T18:25:33.903Z,52.40
2018-03-29T18:28:01.432Z,52.70
2018-03-29T18:30:28.937Z,53.20
2018-03-29T18:32:56.456Z,53.10
2018-03-29T18:35:23.996Z,53.40
2018-03-29T18:37:52.297Z,54.70
2018-03-29T18:40:19.808Z,54.80
2018-03-29T18:42:47.325Z,55.60
2018-03-29T18:45:14.851Z,56.80
2018-03-29T18:47:42.368Z,57.80
2018-03-29T18:50:09.927Z,59.30
2018-03-29T18:52:37.428Z,60.80
2018-03-29T18:55:04.951Z,61.30
2018-03-29T18:57:32.510Z,61.80
2018-03-29T19:00:00.029Z,61.50
2018-03-29T19:02:27.556Z,61.60
2018-03-29T19:04:55.086Z,62.00
2018-03-29T19:07:23.397Z,62.60
2018-03-29T19:09:50.953Z,62.60
2018-03-29T19:12:18.472Z,63.20
2018-03-29T19:14:46.003Z,63.30
2018-03-29T19:17:13.614Z,63.20
2018-03-29T19:19:41.176Z,63.00
2018-03-29T19:22:08.738Z,62.60
2018-03-29T19:24:36.265Z,62.50
2018-03-29T19:27:03.812Z,62.50
2018-03-29T19:29:31.358Z,62.30
2018-03-29T19:31:59.680Z,58.30
2018-03-29T19:34:27.277Z,58.20
2018-03-29T19:36:54.810Z,53.60
2018-03-29T19:39:22.421Z,51.50
2018-03-29T19:41:49.988Z,52.50
2018-03-29T19:44:17.505Z,55.00
2018-03-29T19:46:45.048Z,56.30
2018-03-29T19:49:12.562Z,56.90
2018-03-29T19:51:40.101Z,57.30
2018-03-29T19:54:09.293Z,57.60
2018-03-29T19:56:36.839Z,57.60
2018-03-29T19:59:04.355Z,57.70
2018-03-29T20:01:31.909Z,57.80
2018-03-29T20:03:59.537Z,57.90
2018-03-29T20:06:27.840Z,58.00
2018-03-29T20:08:55.349Z,58.00
2018-03-29T20:11:22.860Z,58.10
2018-03-29T20:13:50.599Z,58.10
2018-03-29T20:16:18.917Z,58.20
2018-03-29T20:18:46.441Z,58.20
2018-03-29T20:21:13.988Z,58.40
2018-03-29T20:23:41.510Z,59.10
2018-03-29T20:26:09.033Z,58.60
2018-03-29T20:28:36.629Z,58.70
2018-03-29T20:31:04.190Z,58.80
2018-03-29T20:33:32.504Z,59.00
2018-03-29T20:36:00.120Z,59.20
2018-03-29T20:38:27.641Z,59.20
2018-03-29T20:40:55.214Z,59.30
2018-03-29T20:43:22.744Z,59.40
2018-03-29T20:45:50.277Z,59.50
2018-03-29T20:48:17.785Z,59.60
2018-03-29T20:50:45.321Z,59.70
2018-03-29T20:53:13.632Z,59.80
2018-03-29T20:55:41.173Z,59.80
2018-03-29T20:58:09.571Z,59.90
2018-03-29T21:00:37.086Z,59.90
2018-03-29T21:03:04.632Z,59.90
2018-03-29T21:05:32.240Z,60.00
2018-03-29T21:07:59.911Z,60.00
2018-03-29T21:10:28.203Z,60.30
2018-03-29T21:12:56.468Z,60.30
2018-03-29T21:15:23.973Z,60.30
2018-03-29T21:17:51.593Z,60.50
2018-03-29T21:20:19.172Z,60.40
2018-03-29T21:22:47.544Z,60.60
2018-03-29T21:25:15.074Z,60.60
2018-03-29T21:27:42.578Z,60.70
2018-03-29T21:30:10.134Z,60.60
2018-03-29T21:32:37.648Z,60.60
2018-03-29T21:35:05.166Z,60.70
2018-03-29T21:37:32.703Z,60.80
2018-03-29T21:40:00.298Z,60.80
2018-03-29T21:42:27.896Z,60.80
2018-03-29T21:44:55.420Z,60.90
2018-03-29T21:47:23.728Z,61.00
2018-03-29T21:49:52.004Z,61.00
2018-03-29T21:52:20.288Z,61.10
2018-03-29T21:54:48.592Z,62.00
2018-03-29T21:57:16.114Z,61.10
2018-03-29T21:59:43.617Z,61.10
2018-03-29T22:02:11.891Z,61.90
2018-03-29T22:04:40.277Z,61.20
2018-03-29T22:07:08.559Z,61.30
2018-03-29T22:09:36.902Z,61.50
2018-03-29T22:12:04.496Z,61.50
2018-03-29T22:14:32.012Z,61.60
2018-03-29T22:16:59.519Z,61.60
2018-03-29T22:19:27.044Z,61.70
2018-03-29T22:21:54.641Z,61.60
2018-03-29T22:24:22.156Z,61.70
2018-03-29T22:26:49.680Z,61.80
2018-03-29T22:29:17.250Z,61.80
2018-03-29T22:31:44.769Z,61.80
2018-03-29T22:34:12.291Z,61.90
2018-03-29T22:36:40.598Z,61.90
2018-03-29T22:39:08.096Z,61.90
2018-03-29T22:41:35.633Z,62.10
2018-03-29T22:44:03.898Z,62.50
2018-03-29T22:46:31.436Z,62.50
2018-03-29T22:48:58.924Z,62.40
2018-03-29T22:51:26.458Z,62.50
2018-03-29T22:53:53.966Z,62.50
2018-03-29T22:56:21.471Z,62.50
2018-03-29T22:58:48.989Z,62.50
2018-03-29T23:01:16.493Z,62.50
2018-03-29T23:03:43.994Z,62.50
2018-03-29T23:06:12.362Z,62.50
2018-03-29T23:08:40.676Z,62.50
2018-03-29T23:11:08.922Z,62.60
2018-03-29T23:13:36.449Z,62.50
2018-03-29T23:16:03.937Z,62.50
2018-03-29T23:18:31.447Z,63.00
2018-03-29T23:20:59.732Z,62.70
2018-03-29T23:23:28.003Z,62.70
2018-03-29T23:25:56.271Z,62.80
2018-03-29T23:28:25.286Z,62.70
2018-03-29T23:30:53.653Z,62.70
2018-03-29T23:33:21.212Z,62.70
2018-03-29T23:35:48.710Z,62.90
2018-03-29T23:38:16.208Z,62.80
2018-03-29T23:40:43.751Z,62.80
2018-03-29T23:43:11.252Z,62.80
2018-03-29T23:45:38.830Z,62.90
2018-03-29T23:48:07.104Z,62.90
2018-03-29T23:50:34.694Z,62.90
2018-03-29T23:53:02.211Z,62.90
2018-03-29T23:55:29.717Z,62.90
2018-03-29T23:58:09.043Z,63.20
